sensor_id;sensor_type;location;lat;lon;timestamp;P1;durP1;ratioP1;P2;durP2;ratioP2
5937;SDS011;2994;51.220;4.412;2023-02-27T00:00:06;3.10;;;1.60;;
5937;SDS011;2994;51.220;4.412;2023-02-27T00:02:43;3.87;;;1.37;;
5937;SDS011;2994;51.220;4.412;2023-02-27T00:05:10;2.90;;;1.53;;
5937;SDS011;2994;51.220;4.412;2023-02-27T00:07:36;2.63;;;1.57;;
5937;SDS011;2994;51.220;4.412;2023-02-27T00:10:05;2.47;;;1.40;;
5937;SDS011;2994;51.220;4.412;2023-02-27T00:12:32;2.27;;;1.30;;
5937;SDS011;2994;51.220;4.412;2023-02-27T00:15:13;3.07;;;1.40;;
5937;SDS011;2994;51.220;4.412;2023-02-27T00:17:41;4.83;;;2.00;;
5937;SDS011;2994;51.220;4.412;2023-02-27T00:20:08;4.60;;;2.00;;
5937;SDS011;2994;51.220;4.412;2023-02-27T00:22:35;1.63;;;1.37;;
5937;SDS011;2994;51.220;4.412;2023-02-27T00:25:01;3.37;;;1.90;;
5937;SDS011;2994;51.220;4.412;2023-02-27T00:27:26;3.40;;;1.80;;
5937;SDS011;2994;51.220;4.412;2023-02-27T00:29:52;2.93;;;1.57;;
5937;SDS011;2994;51.220;4.412;2023-02-27T00:32:17;3.77;;;2.43;;
5937;SDS011;2994;51.220;4.412;2023-02-27T00:34:43;3.73;;;2.10;;
5937;SDS011;2994;51.220;4.412;2023-02-27T00:37:08;2.23;;;1.87;;
5937;SDS011;2994;51.220;4.412;2023-02-27T00:39:34;2.67;;;1.70;;
5937;SDS011;2994;51.220;4.412;2023-02-27T00:41:59;2.93;;;1.70;;
5937;SDS011;2994;51.220;4.412;2023-02-27T00:44:24;2.40;;;1.50;;
5937;SDS011;2994;51.220;4.412;2023-02-27T00:46:50;2.80;;;1.53;;
5937;SDS011;2994;51.220;4.412;2023-02-27T00:49:15;2.67;;;1.90;;
5937;SDS011;2994;51.220;4.412;2023-02-27T00:51:41;2.70;;;2.10;;
5937;SDS011;2994;51.220;4.412;2023-02-27T00:54:06;4.30;;;1.90;;
5937;SDS011;2994;51.220;4.412;2023-02-27T00:56:33;2.23;;;1.50;;
5937;SDS011;2994;51.220;4.412;2023-02-27T00:58:59;3.03;;;1.87;;
5937;SDS011;2994;51.220;4.412;2023-02-27T01:01:24;3.20;;;2.30;;
5937;SDS011;2994;51.220;4.412;2023-02-27T01:03:49;3.40;;;1.87;;
5937;SDS011;2994;51.220;4.412;2023-02-27T01:06:15;4.87;;;2.17;;
5937;SDS011;2994;51.220;4.412;2023-02-27T01:08:40;6.97;;;2.10;;
5937;SDS011;2994;51.220;4.412;2023-02-27T01:11:06;2.90;;;2.30;;
5937;SDS011;2994;51.220;4.412;2023-02-27T01:13:31;6.20;;;2.30;;
5937;SDS011;2994;51.220;4.412;2023-02-27T01:15:57;3.17;;;1.73;;
5937;SDS011;2994;51.220;4.412;2023-02-27T01:18:22;2.40;;;2.17;;
5937;SDS011;2994;51.220;4.412;2023-02-27T01:20:54;3.50;;;1.97;;
5937;SDS011;2994;51.220;4.412;2023-02-27T01:23:20;4.07;;;2.50;;
5937;SDS011;2994;51.220;4.412;2023-02-27T01:25:47;3.83;;;2.40;;
5937;SDS011;2994;51.220;4.412;2023-02-27T01:28:13;1.70;;;1.53;;
5937;SDS011;2994;51.220;4.412;2023-02-27T01:30:38;4.13;;;2.50;;
5937;SDS011;2994;51.220;4.412;2023-02-27T01:33:05;4.00;;;1.90;;
5937;SDS011;2994;51.220;4.412;2023-02-27T01:35:30;2.33;;;1.67;;
5937;SDS011;2994;51.220;4.412;2023-02-27T01:37:56;3.90;;;2.70;;
5937;SDS011;2994;51.220;4.412;2023-02-27T01:40:22;4.30;;;2.13;;
5937;SDS011;2994;51.220;4.412;2023-02-27T01:42:47;3.80;;;2.30;;
5937;SDS011;2994;51.220;4.412;2023-02-27T01:47:51;3.53;;;2.20;;
5937;SDS011;2994;51.220;4.412;2023-02-27T01:50:40;4.53;;;1.80;;
5937;SDS011;2994;51.220;4.412;2023-02-27T01:53:12;3.53;;;1.50;;
5937;SDS011;2994;51.220;4.412;2023-02-27T01:55:38;2.93;;;1.73;;
5937;SDS011;2994;51.220;4.412;2023-02-27T01:58:05;7.07;;;2.07;;
5937;SDS011;2994;51.220;4.412;2023-02-27T02:00:33;3.10;;;1.57;;
5937;SDS011;2994;51.220;4.412;2023-02-27T02:03:00;2.67;;;1.67;;
5937;SDS011;2994;51.220;4.412;2023-02-27T02:05:45;2.83;;;1.87;;
5937;SDS011;2994;51.220;4.412;2023-02-27T02:08:13;3.03;;;1.57;;
5937;SDS011;2994;51.220;4.412;2023-02-27T02:10:41;3.70;;;2.03;;
5937;SDS011;2994;51.220;4.412;2023-02-27T02:13:08;2.90;;;1.73;;
5937;SDS011;2994;51.220;4.412;2023-02-27T02:15:35;6.07;;;2.10;;
5937;SDS011;2994;51.220;4.412;2023-02-27T02:18:20;5.63;;;1.87;;
5937;SDS011;2994;51.220;4.412;2023-02-27T02:24:09;2.57;;;1.77;;
5937;SDS011;2994;51.220;4.412;2023-02-27T02:41:10;3.40;;;2.30;;
5937;SDS011;2994;51.220;4.412;2023-02-27T02:52:28;7.67;;;2.77;;
5937;SDS011;2994;51.220;4.412;2023-02-27T02:54:57;3.10;;;2.00;;
5937;SDS011;2994;51.220;4.412;2023-02-27T02:57:38;4.10;;;2.27;;
5937;SDS011;2994;51.220;4.412;2023-02-27T03:02:47;3.90;;;2.20;;
5937;SDS011;2994;51.220;4.412;2023-02-27T03:05:25;2.50;;;1.80;;
5937;SDS011;2994;51.220;4.412;2023-02-27T03:10:48;2.40;;;1.83;;
5937;SDS011;2994;51.220;4.412;2023-02-27T03:13:21;3.33;;;1.93;;
5937;SDS011;2994;51.220;4.412;2023-02-27T03:19:01;4.60;;;2.40;;
5937;SDS011;2994;51.220;4.412;2023-02-27T03:21:41;3.50;;;2.40;;
5937;SDS011;2994;51.220;4.412;2023-02-27T03:24:25;3.00;;;2.10;;
5937;SDS011;2994;51.220;4.412;2023-02-27T03:26:56;2.80;;;1.90;;
5937;SDS011;2994;51.220;4.412;2023-02-27T03:29:39;3.63;;;1.97;;
5937;SDS011;2994;51.220;4.412;2023-02-27T03:32:28;3.10;;;1.83;;
5937;SDS011;2994;51.220;4.412;2023-02-27T03:35:07;2.63;;;2.00;;
5937;SDS011;2994;51.220;4.412;2023-02-27T03:40:23;3.20;;;2.00;;
5937;SDS011;2994;51.220;4.412;2023-02-27T03:43:01;5.57;;;1.90;;
5937;SDS011;2994;51.220;4.412;2023-02-27T03:48:23;2.20;;;1.80;;
5937;SDS011;2994;51.220;4.412;2023-02-27T03:50:49;5.80;;;2.43;;
5937;SDS011;2994;51.220;4.412;2023-02-27T03:53:17;5.13;;;2.20;;
5937;SDS011;2994;51.220;4.412;2023-02-27T03:55:57;2.20;;;2.00;;
5937;SDS011;2994;51.220;4.412;2023-02-27T03:58:26;3.17;;;2.50;;
5937;SDS011;2994;51.220;4.412;2023-02-27T04:00:52;2.73;;;2.00;;
5937;SDS011;2994;51.220;4.412;2023-02-27T04:03:17;3.70;;;2.20;;
5937;SDS011;2994;51.220;4.412;2023-02-27T04:05:43;3.93;;;2.20;;
5937;SDS011;2994;51.220;4.412;2023-02-27T04:10:54;2.70;;;2.00;;
5937;SDS011;2994;51.220;4.412;2023-02-27T04:13:38;3.50;;;2.50;;
5937;SDS011;2994;51.220;4.412;2023-02-27T04:27:15;5.90;;;3.83;;
5937;SDS011;2994;51.220;4.412;2023-02-27T04:32:32;2.87;;;1.80;;
5937;SDS011;2994;51.220;4.412;2023-02-27T04:35:09;4.70;;;2.60;;
5937;SDS011;2994;51.220;4.412;2023-02-27T04:38:01;1.90;;;1.63;;
5937;SDS011;2994;51.220;4.412;2023-02-27T04:40:42;5.10;;;2.53;;
5937;SDS011;2994;51.220;4.412;2023-02-27T04:43:14;5.33;;;2.30;;
5937;SDS011;2994;51.220;4.412;2023-02-27T04:45:41;2.50;;;2.13;;
5937;SDS011;2994;51.220;4.412;2023-02-27T04:48:23;4.20;;;2.57;;
5937;SDS011;2994;51.220;4.412;2023-02-27T04:50:56;4.10;;;2.27;;
5937;SDS011;2994;51.220;4.412;2023-02-27T04:53:46;3.37;;;2.60;;
5937;SDS011;2994;51.220;4.412;2023-02-27T04:56:19;3.00;;;2.67;;
5937;SDS011;2994;51.220;4.412;2023-02-27T04:58:50;3.47;;;2.60;;
5937;SDS011;2994;51.220;4.412;2023-02-27T05:01:33;3.40;;;2.70;;
5937;SDS011;2994;51.220;4.412;2023-02-27T05:04:02;4.33;;;3.40;;
5937;SDS011;2994;51.220;4.412;2023-02-27T05:06:32;3.77;;;3.10;;
5937;SDS011;2994;51.220;4.412;2023-02-27T05:11:35;7.63;;;2.80;;
5937;SDS011;2994;51.220;4.412;2023-02-27T05:14:12;3.30;;;2.80;;
5937;SDS011;2994;51.220;4.412;2023-02-27T05:17:07;5.80;;;3.20;;
5937;SDS011;2994;51.220;4.412;2023-02-27T05:19:36;3.93;;;2.57;;
5937;SDS011;2994;51.220;4.412;2023-02-27T05:22:08;4.53;;;3.10;;
5937;SDS011;2994;51.220;4.412;2023-02-27T05:24:52;3.60;;;3.30;;
5937;SDS011;2994;51.220;4.412;2023-02-27T05:27:44;3.83;;;2.67;;
5937;SDS011;2994;51.220;4.412;2023-02-27T05:33:05;3.20;;;2.40;;
5937;SDS011;2994;51.220;4.412;2023-02-27T05:35:44;4.40;;;2.60;;
5937;SDS011;2994;51.220;4.412;2023-02-27T05:38:20;3.27;;;2.70;;
5937;SDS011;2994;51.220;4.412;2023-02-27T05:40:51;4.60;;;3.10;;
5937;SDS011;2994;51.220;4.412;2023-02-27T05:43:21;4.73;;;2.97;;
5937;SDS011;2994;51.220;4.412;2023-02-27T05:45:54;3.23;;;2.90;;
5937;SDS011;2994;51.220;4.412;2023-02-27T05:48:45;3.70;;;2.50;;
5937;SDS011;2994;51.220;4.412;2023-02-27T05:51:14;4.73;;;3.70;;
5937;SDS011;2994;51.220;4.412;2023-02-27T05:53:44;3.63;;;3.17;;
5937;SDS011;2994;51.220;4.412;2023-02-27T05:56:14;4.47;;;2.90;;
5937;SDS011;2994;51.220;4.412;2023-02-27T06:01:11;9.40;;;3.40;;
5937;SDS011;2994;51.220;4.412;2023-02-27T06:03:38;3.80;;;3.10;;
5937;SDS011;2994;51.220;4.412;2023-02-27T06:06:06;4.83;;;3.23;;
5937;SDS011;2994;51.220;4.412;2023-02-27T06:08:35;4.53;;;2.70;;
5937;SDS011;2994;51.220;4.412;2023-02-27T06:11:01;3.70;;;2.93;;
5937;SDS011;2994;51.220;4.412;2023-02-27T06:13:26;4.37;;;3.03;;
5937;SDS011;2994;51.220;4.412;2023-02-27T06:15:52;4.53;;;3.53;;
5937;SDS011;2994;51.220;4.412;2023-02-27T06:18:18;4.43;;;3.30;;
5937;SDS011;2994;51.220;4.412;2023-02-27T06:20:44;5.10;;;3.17;;
5937;SDS011;2994;51.220;4.412;2023-02-27T06:23:10;3.63;;;3.20;;
5937;SDS011;2994;51.220;4.412;2023-02-27T06:25:36;5.33;;;3.10;;
5937;SDS011;2994;51.220;4.412;2023-02-27T06:28:02;7.50;;;3.03;;
5937;SDS011;2994;51.220;4.412;2023-02-27T06:30:28;7.10;;;3.17;;
5937;SDS011;2994;51.220;4.412;2023-02-27T06:32:54;6.37;;;3.13;;
5937;SDS011;2994;51.220;4.412;2023-02-27T06:35:19;3.73;;;3.27;;
5937;SDS011;2994;51.220;4.412;2023-02-27T06:37:46;3.70;;;2.87;;
5937;SDS011;2994;51.220;4.412;2023-02-27T06:40:11;4.93;;;3.30;;
5937;SDS011;2994;51.220;4.412;2023-02-27T06:42:41;8.60;;;4.37;;
5937;SDS011;2994;51.220;4.412;2023-02-27T06:45:08;4.87;;;4.17;;
5937;SDS011;2994;51.220;4.412;2023-02-27T06:47:35;6.27;;;3.30;;
5937;SDS011;2994;51.220;4.412;2023-02-27T06:50:01;4.43;;;3.37;;
5937;SDS011;2994;51.220;4.412;2023-02-27T06:52:27;6.40;;;3.70;;
5937;SDS011;2994;51.220;4.412;2023-02-27T06:54:52;4.30;;;2.97;;
5937;SDS011;2994;51.220;4.412;2023-02-27T06:57:18;6.10;;;3.77;;
5937;SDS011;2994;51.220;4.412;2023-02-27T06:59:44;3.97;;;2.97;;
5937;SDS011;2994;51.220;4.412;2023-02-27T07:02:13;4.37;;;3.00;;
5937;SDS011;2994;51.220;4.412;2023-02-27T07:04:39;3.40;;;3.03;;
5937;SDS011;2994;51.220;4.412;2023-02-27T07:07:04;5.23;;;3.00;;
5937;SDS011;2994;51.220;4.412;2023-02-27T07:09:30;6.77;;;3.70;;
5937;SDS011;2994;51.220;4.412;2023-02-27T07:11:56;6.17;;;3.70;;
5937;SDS011;2994;51.220;4.412;2023-02-27T07:14:21;4.50;;;3.23;;
5937;SDS011;2994;51.220;4.412;2023-02-27T07:16:47;5.60;;;3.60;;
5937;SDS011;2994;51.220;4.412;2023-02-27T07:19:15;6.93;;;3.53;;
5937;SDS011;2994;51.220;4.412;2023-02-27T07:21:42;4.07;;;3.00;;
5937;SDS011;2994;51.220;4.412;2023-02-27T07:24:08;6.70;;;4.03;;
5937;SDS011;2994;51.220;4.412;2023-02-27T07:26:34;9.60;;;3.67;;
5937;SDS011;2994;51.220;4.412;2023-02-27T07:29:00;7.07;;;4.13;;
5937;SDS011;2994;51.220;4.412;2023-02-27T07:31:25;4.13;;;3.23;;
5937;SDS011;2994;51.220;4.412;2023-02-27T07:33:51;8.37;;;4.63;;
5937;SDS011;2994;51.220;4.412;2023-02-27T07:36:16;6.30;;;2.90;;
5937;SDS011;2994;51.220;4.412;2023-02-27T07:38:42;4.93;;;3.33;;
5937;SDS011;2994;51.220;4.412;2023-02-27T07:41:07;10.00;;;4.03;;
5937;SDS011;2994;51.220;4.412;2023-02-27T07:43:33;7.90;;;3.57;;
5937;SDS011;2994;51.220;4.412;2023-02-27T07:45:58;6.73;;;3.20;;
5937;SDS011;2994;51.220;4.412;2023-02-27T07:48:24;4.87;;;3.47;;
5937;SDS011;2994;51.220;4.412;2023-02-27T07:50:50;3.23;;;2.87;;
5937;SDS011;2994;51.220;4.412;2023-02-27T07:53:15;4.73;;;3.63;;
5937;SDS011;2994;51.220;4.412;2023-02-27T07:55:40;6.73;;;3.63;;
5937;SDS011;2994;51.220;4.412;2023-02-27T07:58:06;3.40;;;3.10;;
5937;SDS011;2994;51.220;4.412;2023-02-27T08:00:31;5.43;;;3.60;;
5937;SDS011;2994;51.220;4.412;2023-02-27T08:02:57;5.03;;;4.30;;
5937;SDS011;2994;51.220;4.412;2023-02-27T08:05:22;15.10;;;4.80;;
5937;SDS011;2994;51.220;4.412;2023-02-27T08:07:48;11.87;;;5.37;;
5937;SDS011;2994;51.220;4.412;2023-02-27T08:10:13;9.67;;;4.17;;
5937;SDS011;2994;51.220;4.412;2023-02-27T08:12:40;6.20;;;2.90;;
5937;SDS011;2994;51.220;4.412;2023-02-27T08:15:06;8.20;;;3.30;;
5937;SDS011;2994;51.220;4.412;2023-02-27T08:17:32;5.27;;;3.57;;
5937;SDS011;2994;51.220;4.412;2023-02-27T08:19:58;7.83;;;3.57;;
5937;SDS011;2994;51.220;4.412;2023-02-27T08:22:23;5.50;;;3.60;;
5937;SDS011;2994;51.220;4.412;2023-02-27T08:24:49;6.37;;;3.90;;
5937;SDS011;2994;51.220;4.412;2023-02-27T08:27:14;3.70;;;3.37;;
5937;SDS011;2994;51.220;4.412;2023-02-27T08:29:40;4.50;;;3.27;;
5937;SDS011;2994;51.220;4.412;2023-02-27T08:32:07;11.33;;;4.23;;
5937;SDS011;2994;51.220;4.412;2023-02-27T08:34:32;7.60;;;3.40;;
5937;SDS011;2994;51.220;4.412;2023-02-27T08:36:58;4.00;;;3.13;;
5937;SDS011;2994;51.220;4.412;2023-02-27T08:39:24;4.27;;;3.13;;
5937;SDS011;2994;51.220;4.412;2023-02-27T08:41:49;4.17;;;3.77;;
5937;SDS011;2994;51.220;4.412;2023-02-27T08:44:16;5.23;;;2.23;;
5937;SDS011;2994;51.220;4.412;2023-02-27T08:46:43;6.63;;;3.00;;
5937;SDS011;2994;51.220;4.412;2023-02-27T08:49:09;8.13;;;4.43;;
5937;SDS011;2994;51.220;4.412;2023-02-27T08:51:35;4.83;;;3.40;;
5937;SDS011;2994;51.220;4.412;2023-02-27T08:54:00;5.60;;;4.00;;
5937;SDS011;2994;51.220;4.412;2023-02-27T08:56:26;5.47;;;4.03;;
5937;SDS011;2994;51.220;4.412;2023-02-27T08:58:52;12.33;;;4.93;;
5937;SDS011;2994;51.220;4.412;2023-02-27T09:01:18;12.73;;;5.63;;
5937;SDS011;2994;51.220;4.412;2023-02-27T09:03:43;6.07;;;4.00;;
5937;SDS011;2994;51.220;4.412;2023-02-27T09:06:09;5.17;;;3.60;;
5937;SDS011;2994;51.220;4.412;2023-02-27T09:08:35;7.33;;;4.63;;
5937;SDS011;2994;51.220;4.412;2023-02-27T09:11:01;4.63;;;3.60;;
5937;SDS011;2994;51.220;4.412;2023-02-27T09:13:27;7.17;;;3.30;;
5937;SDS011;2994;51.220;4.412;2023-02-27T09:15:53;4.47;;;3.30;;
5937;SDS011;2994;51.220;4.412;2023-02-27T09:18:19;4.43;;;3.30;;
5937;SDS011;2994;51.220;4.412;2023-02-27T09:20:47;9.07;;;3.30;;
5937;SDS011;2994;51.220;4.412;2023-02-27T09:23:15;3.03;;;2.60;;
5937;SDS011;2994;51.220;4.412;2023-02-27T09:25:43;4.07;;;2.97;;
5937;SDS011;2994;51.220;4.412;2023-02-27T09:28:09;3.50;;;2.80;;
5937;SDS011;2994;51.220;4.412;2023-02-27T09:30:34;6.30;;;3.17;;
5937;SDS011;2994;51.220;4.412;2023-02-27T09:33:00;13.97;;;5.23;;
5937;SDS011;2994;51.220;4.412;2023-02-27T09:35:25;4.17;;;2.67;;
5937;SDS011;2994;51.220;4.412;2023-02-27T09:37:51;11.47;;;3.23;;
5937;SDS011;2994;51.220;4.412;2023-02-27T09:40:26;8.20;;;2.43;;
5937;SDS011;2994;51.220;4.412;2023-02-27T09:42:54;4.27;;;2.30;;
5937;SDS011;2994;51.220;4.412;2023-02-27T09:45:25;4.70;;;2.70;;
5937;SDS011;2994;51.220;4.412;2023-02-27T09:47:53;3.07;;;2.50;;
5937;SDS011;2994;51.220;4.412;2023-02-27T09:53:10;3.53;;;2.50;;
5937;SDS011;2994;51.220;4.412;2023-02-27T09:55:40;4.47;;;2.17;;
5937;SDS011;2994;51.220;4.412;2023-02-27T10:00:48;4.23;;;2.57;;
5937;SDS011;2994;51.220;4.412;2023-02-27T10:09:51;2.93;;;1.70;;
5937;SDS011;2994;51.220;4.412;2023-02-27T10:12:33;2.30;;;1.83;;
5937;SDS011;2994;51.220;4.412;2023-02-27T10:17:59;3.00;;;2.07;;
5937;SDS011;2994;51.220;4.412;2023-02-27T10:20:31;3.70;;;2.13;;
5937;SDS011;2994;51.220;4.412;2023-02-27T10:23:00;4.17;;;2.10;;
5937;SDS011;2994;51.220;4.412;2023-02-27T10:25:31;4.93;;;2.80;;
5937;SDS011;2994;51.220;4.412;2023-02-27T10:28:13;6.73;;;1.83;;
5937;SDS011;2994;51.220;4.412;2023-02-27T10:30:40;4.10;;;2.23;;
5937;SDS011;2994;51.220;4.412;2023-02-27T10:33:18;3.23;;;2.00;;
5937;SDS011;2994;51.220;4.412;2023-02-27T10:35:50;5.30;;;1.87;;
5937;SDS011;2994;51.220;4.412;2023-02-27T10:38:38;3.40;;;1.90;;
5937;SDS011;2994;51.220;4.412;2023-02-27T10:41:06;2.87;;;1.90;;
5937;SDS011;2994;51.220;4.412;2023-02-27T10:43:35;2.77;;;1.67;;
5937;SDS011;2994;51.220;4.412;2023-02-27T10:46:06;3.83;;;1.90;;
5937;SDS011;2994;51.220;4.412;2023-02-27T10:48:59;2.33;;;1.57;;
5937;SDS011;2994;51.220;4.412;2023-02-27T10:51:30;4.90;;;2.30;;
5937;SDS011;2994;51.220;4.412;2023-02-27T10:56:43;2.60;;;1.70;;
5937;SDS011;2994;51.220;4.412;2023-02-27T10:59:31;3.87;;;1.53;;
5937;SDS011;2994;51.220;4.412;2023-02-27T11:02:00;3.40;;;1.70;;
5937;SDS011;2994;51.220;4.412;2023-02-27T11:04:37;1.97;;;1.70;;
5937;SDS011;2994;51.220;4.412;2023-02-27T11:07:10;3.00;;;1.43;;
5937;SDS011;2994;51.220;4.412;2023-02-27T11:09:38;3.53;;;1.33;;
5937;SDS011;2994;51.220;4.412;2023-02-27T11:14:54;1.60;;;1.30;;
5937;SDS011;2994;51.220;4.412;2023-02-27T11:17:23;6.93;;;2.83;;
5937;SDS011;2994;51.220;4.412;2023-02-27T11:19:52;1.93;;;1.20;;
5937;SDS011;2994;51.220;4.412;2023-02-27T11:22:19;4.23;;;1.63;;
5937;SDS011;2994;51.220;4.412;2023-02-27T11:24:48;2.70;;;1.27;;
5937;SDS011;2994;51.220;4.412;2023-02-27T11:27:19;1.53;;;1.30;;
5937;SDS011;2994;51.220;4.412;2023-02-27T11:29:58;2.13;;;1.13;;
5937;SDS011;2994;51.220;4.412;2023-02-27T11:32:44;1.63;;;1.20;;
5937;SDS011;2994;51.220;4.412;2023-02-27T11:35:33;3.60;;;1.57;;
5937;SDS011;2994;51.220;4.412;2023-02-27T11:38:03;8.77;;;3.90;;
5937;SDS011;2994;51.220;4.412;2023-02-27T11:40:32;10.43;;;2.53;;
5937;SDS011;2994;51.220;4.412;2023-02-27T11:43:04;4.20;;;1.37;;
5937;SDS011;2994;51.220;4.412;2023-02-27T11:45:40;1.90;;;1.33;;
5937;SDS011;2994;51.220;4.412;2023-02-27T11:51:13;1.70;;;1.30;;
5937;SDS011;2994;51.220;4.412;2023-02-27T11:56:45;1.80;;;1.50;;
5937;SDS011;2994;51.220;4.412;2023-02-27T12:01:53;2.23;;;1.40;;
5937;SDS011;2994;51.220;4.412;2023-02-27T12:04:30;3.73;;;1.20;;
5937;SDS011;2994;51.220;4.412;2023-02-27T12:07:02;1.60;;;1.50;;
5937;SDS011;2994;51.220;4.412;2023-02-27T12:12:40;1.20;;;1.10;;
5937;SDS011;2994;51.220;4.412;2023-02-27T12:20:40;1.60;;;1.47;;
5937;SDS011;2994;51.220;4.412;2023-02-27T12:23:14;2.47;;;1.00;;
5937;SDS011;2994;51.220;4.412;2023-02-27T12:26:06;2.50;;;1.27;;
5937;SDS011;2994;51.220;4.412;2023-02-27T12:28:43;2.40;;;1.30;;
5937;SDS011;2994;51.220;4.412;2023-02-27T12:31:25;6.90;;;1.60;;
5937;SDS011;2994;51.220;4.412;2023-02-27T12:36:44;5.33;;;1.53;;
5937;SDS011;2994;51.220;4.412;2023-02-27T12:39:16;3.83;;;1.40;;
5937;SDS011;2994;51.220;4.412;2023-02-27T12:44:54;2.23;;;1.80;;
5937;SDS011;2994;51.220;4.412;2023-02-27T12:47:48;2.57;;;1.30;;
5937;SDS011;2994;51.220;4.412;2023-02-27T12:50:28;1.70;;;1.23;;
5937;SDS011;2994;51.220;4.412;2023-02-27T12:56:12;2.00;;;1.17;;
5937;SDS011;2994;51.220;4.412;2023-02-27T12:58:53;5.77;;;1.30;;
5937;SDS011;2994;51.220;4.412;2023-02-27T13:01:45;2.20;;;1.60;;
5937;SDS011;2994;51.220;4.412;2023-02-27T13:06:55;5.07;;;1.70;;
5937;SDS011;2994;51.220;4.412;2023-02-27T13:09:46;2.30;;;1.60;;
5937;SDS011;2994;51.220;4.412;2023-02-27T13:17:44;2.40;;;1.50;;
5937;SDS011;2994;51.220;4.412;2023-02-27T13:23:14;4.87;;;1.53;;
5937;SDS011;2994;51.220;4.412;2023-02-27T13:25:48;2.97;;;1.90;;
5937;SDS011;2994;51.220;4.412;2023-02-27T13:28:23;3.77;;;1.63;;
5937;SDS011;2994;51.220;4.412;2023-02-27T13:36:11;3.73;;;1.87;;
5937;SDS011;2994;51.220;4.412;2023-02-27T13:43:45;2.57;;;1.73;;
5937;SDS011;2994;51.220;4.412;2023-02-27T13:56:42;1.87;;;1.27;;
5937;SDS011;2994;51.220;4.412;2023-02-27T13:59:11;2.00;;;1.47;;
5937;SDS011;2994;51.220;4.412;2023-02-27T14:01:52;2.93;;;2.13;;
5937;SDS011;2994;51.220;4.412;2023-02-27T14:04:24;3.00;;;2.30;;
5937;SDS011;2994;51.220;4.412;2023-02-27T14:06:58;5.07;;;1.77;;
5937;SDS011;2994;51.220;4.412;2023-02-27T14:09:29;5.90;;;1.43;;
5937;SDS011;2994;51.220;4.412;2023-02-27T14:12:03;2.60;;;1.90;;
5937;SDS011;2994;51.220;4.412;2023-02-27T14:17:11;4.67;;;1.60;;
5937;SDS011;2994;51.220;4.412;2023-02-27T14:27:25;2.90;;;1.63;;
5937;SDS011;2994;51.220;4.412;2023-02-27T14:29:51;2.87;;;2.20;;
5937;SDS011;2994;51.220;4.412;2023-02-27T14:32:20;3.17;;;2.27;;
5937;SDS011;2994;51.220;4.412;2023-02-27T14:34:47;1.63;;;1.50;;
5937;SDS011;2994;51.220;4.412;2023-02-27T14:37:16;2.27;;;1.73;;
5937;SDS011;2994;51.220;4.412;2023-02-27T14:39:46;6.20;;;2.00;;
5937;SDS011;2994;51.220;4.412;2023-02-27T14:45:19;3.13;;;2.00;;
5937;SDS011;2994;51.220;4.412;2023-02-27T14:47:49;7.10;;;2.70;;
5937;SDS011;2994;51.220;4.412;2023-02-27T14:52:50;4.17;;;2.10;;
5937;SDS011;2994;51.220;4.412;2023-02-27T14:57:54;4.30;;;1.93;;
5937;SDS011;2994;51.220;4.412;2023-02-27T15:01:12;3.23;;;2.93;;
5937;SDS011;2994;51.220;4.412;2023-02-27T15:03:49;2.10;;;1.90;;
5937;SDS011;2994;51.220;4.412;2023-02-27T15:06:22;5.60;;;2.70;;
5937;SDS011;2994;51.220;4.412;2023-02-27T15:08:51;4.33;;;2.63;;
5937;SDS011;2994;51.220;4.412;2023-02-27T15:11:21;2.20;;;1.83;;
5937;SDS011;2994;51.220;4.412;2023-02-27T15:14:01;3.07;;;2.10;;
5937;SDS011;2994;51.220;4.412;2023-02-27T15:16:34;2.90;;;2.07;;
5937;SDS011;2994;51.220;4.412;2023-02-27T15:19:15;2.10;;;1.80;;
5937;SDS011;2994;51.220;4.412;2023-02-27T15:21:44;3.43;;;2.00;;
5937;SDS011;2994;51.220;4.412;2023-02-27T15:26:54;4.30;;;2.03;;
5937;SDS011;2994;51.220;4.412;2023-02-27T15:29:41;3.17;;;1.63;;
5937;SDS011;2994;51.220;4.412;2023-02-27T15:32:16;2.30;;;2.10;;
5937;SDS011;2994;51.220;4.412;2023-02-27T15:34:51;3.07;;;1.57;;
5937;SDS011;2994;51.220;4.412;2023-02-27T15:37:21;2.53;;;1.90;;
5937;SDS011;2994;51.220;4.412;2023-02-27T15:39:50;3.53;;;1.97;;
5937;SDS011;2994;51.220;4.412;2023-02-27T15:42:17;1.67;;;1.57;;
5937;SDS011;2994;51.220;4.412;2023-02-27T15:44:45;2.27;;;1.60;;
5937;SDS011;2994;51.220;4.412;2023-02-27T15:47:14;3.00;;;1.93;;
5937;SDS011;2994;51.220;4.412;2023-02-27T15:49:45;3.00;;;1.80;;
5937;SDS011;2994;51.220;4.412;2023-02-27T15:52:22;4.00;;;1.63;;
5937;SDS011;2994;51.220;4.412;2023-02-27T15:54:51;3.80;;;1.90;;
5937;SDS011;2994;51.220;4.412;2023-02-27T15:57:19;3.80;;;2.37;;
5937;SDS011;2994;51.220;4.412;2023-02-27T15:59:46;1.80;;;1.50;;
5937;SDS011;2994;51.220;4.412;2023-02-27T16:02:17;2.53;;;2.10;;
5937;SDS011;2994;51.220;4.412;2023-02-27T16:05:04;2.40;;;1.90;;
5937;SDS011;2994;51.220;4.412;2023-02-27T16:07:38;3.87;;;2.10;;
5937;SDS011;2994;51.220;4.412;2023-02-27T16:10:07;3.93;;;2.50;;
5937;SDS011;2994;51.220;4.412;2023-02-27T16:12:43;4.97;;;1.93;;
5937;SDS011;2994;51.220;4.412;2023-02-27T16:15:16;3.40;;;1.70;;
5937;SDS011;2994;51.220;4.412;2023-02-27T16:18:00;6.83;;;2.13;;
5937;SDS011;2994;51.220;4.412;2023-02-27T16:23:03;2.07;;;1.83;;
5937;SDS011;2994;51.220;4.412;2023-02-27T16:25:31;3.87;;;1.97;;
5937;SDS011;2994;51.220;4.412;2023-02-27T16:27:57;2.50;;;2.17;;
5937;SDS011;2994;51.220;4.412;2023-02-27T16:30:22;2.50;;;1.93;;
5937;SDS011;2994;51.220;4.412;2023-02-27T16:32:48;2.60;;;1.67;;
5937;SDS011;2994;51.220;4.412;2023-02-27T16:35:22;4.37;;;2.10;;
5937;SDS011;2994;51.220;4.412;2023-02-27T16:37:48;3.90;;;2.07;;
5937;SDS011;2994;51.220;4.412;2023-02-27T16:40:16;2.57;;;2.20;;
5937;SDS011;2994;51.220;4.412;2023-02-27T16:42:43;2.60;;;1.47;;
5937;SDS011;2994;51.220;4.412;2023-02-27T16:45:13;2.10;;;1.90;;
5937;SDS011;2994;51.220;4.412;2023-02-27T16:47:41;2.40;;;2.20;;
5937;SDS011;2994;51.220;4.412;2023-02-27T16:50:40;2.63;;;2.10;;
5937;SDS011;2994;51.220;4.412;2023-02-27T16:53:02;1.93;;;1.70;;
5937;SDS011;2994;51.220;4.412;2023-02-27T16:55:29;4.00;;;2.07;;
5937;SDS011;2994;51.220;4.412;2023-02-27T16:57:55;4.80;;;2.00;;
5937;SDS011;2994;51.220;4.412;2023-02-27T17:00:21;2.90;;;2.00;;
5937;SDS011;2994;51.220;4.412;2023-02-27T17:02:47;3.30;;;2.00;;
5937;SDS011;2994;51.220;4.412;2023-02-27T17:05:13;2.90;;;2.27;;
5937;SDS011;2994;51.220;4.412;2023-02-27T17:07:39;2.90;;;2.23;;
5937;SDS011;2994;51.220;4.412;2023-02-27T17:10:05;5.67;;;2.57;;
5937;SDS011;2994;51.220;4.412;2023-02-27T17:12:31;4.10;;;2.13;;
5937;SDS011;2994;51.220;4.412;2023-02-27T17:14:57;2.60;;;2.40;;
5937;SDS011;2994;51.220;4.412;2023-02-27T17:17:23;3.30;;;2.37;;
5937;SDS011;2994;51.220;4.412;2023-02-27T17:19:48;2.83;;;2.53;;
5937;SDS011;2994;51.220;4.412;2023-02-27T17:22:14;4.00;;;2.63;;
5937;SDS011;2994;51.220;4.412;2023-02-27T17:24:39;4.23;;;2.90;;
5937;SDS011;2994;51.220;4.412;2023-02-27T17:27:05;5.23;;;2.40;;
5937;SDS011;2994;51.220;4.412;2023-02-27T17:29:30;6.57;;;2.70;;
5937;SDS011;2994;51.220;4.412;2023-02-27T17:31:56;3.90;;;2.60;;
5937;SDS011;2994;51.220;4.412;2023-02-27T17:34:22;2.50;;;2.30;;
5937;SDS011;2994;51.220;4.412;2023-02-27T17:36:47;2.30;;;2.07;;
5937;SDS011;2994;51.220;4.412;2023-02-27T17:39:13;4.60;;;3.03;;
5937;SDS011;2994;51.220;4.412;2023-02-27T17:41:40;3.10;;;2.60;;
5937;SDS011;2994;51.220;4.412;2023-02-27T17:44:06;4.33;;;2.73;;
5937;SDS011;2994;51.220;4.412;2023-02-27T17:46:33;4.53;;;3.23;;
5937;SDS011;2994;51.220;4.412;2023-02-27T17:49:01;2.63;;;1.97;;
5937;SDS011;2994;51.220;4.412;2023-02-27T17:51:28;3.73;;;2.67;;
5937;SDS011;2994;51.220;4.412;2023-02-27T17:53:54;3.00;;;2.70;;
5937;SDS011;2994;51.220;4.412;2023-02-27T17:56:20;3.33;;;2.90;;
5937;SDS011;2994;51.220;4.412;2023-02-27T17:58:46;5.40;;;2.70;;
5937;SDS011;2994;51.220;4.412;2023-02-27T18:01:13;2.80;;;2.30;;
5937;SDS011;2994;51.220;4.412;2023-02-27T18:03:45;3.03;;;2.60;;
5937;SDS011;2994;51.220;4.412;2023-02-27T18:06:11;2.90;;;2.63;;
5937;SDS011;2994;51.220;4.412;2023-02-27T18:08:37;5.00;;;2.70;;
5937;SDS011;2994;51.220;4.412;2023-02-27T18:11:03;4.33;;;3.00;;
5937;SDS011;2994;51.220;4.412;2023-02-27T18:13:33;3.47;;;2.93;;
5937;SDS011;2994;51.220;4.412;2023-02-27T18:15:58;4.80;;;3.40;;
5937;SDS011;2994;51.220;4.412;2023-02-27T18:18:24;5.60;;;4.17;;
5937;SDS011;2994;51.220;4.412;2023-02-27T18:21:03;7.30;;;3.40;;
5937;SDS011;2994;51.220;4.412;2023-02-27T18:23:30;3.87;;;3.47;;